sensor_id;sensor_type;location;lat;lon;timestamp;temperature;humidity
21762;DHT22;11203;50.870;20.682;2022-10-16T00:01:39;12.00;1.00
21762;DHT22;11203;50.870;20.682;2022-10-16T00:04:05;12.00;1.00
21762;DHT22;11203;50.870;20.682;2022-10-16T00:06:31;12.00;99.90
21762;DHT22;11203;50.870;20.682;2022-10-16T00:08:58;12.00;1.00
21762;DHT22;11203;50.870;20.682;2022-10-16T00:11:27;12.00;1.00
21762;DHT22;11203;50.870;20.682;2022-10-16T00:14:06;12.00;99.90
21762;DHT22;11203;50.870;20.682;2022-10-16T00:16:34;12.00;99.90
21762;DHT22;11203;50.870;20.682;2022-10-16T00:19:00;12.10;1.00
21762;DHT22;11203;50.870;20.682;2022-10-16T00:21:28;12.10;1.00
21762;DHT22;11203;50.870;20.682;2022-10-16T00:24:00;12.00;1.00
21762;DHT22;11203;50.870;20.682;2022-10-16T00:26:30;11.90;73.60
21762;DHT22;11203;50.870;20.682;2022-10-16T00:28:57;12.00;1.00
21762;DHT22;11203;50.870;20.682;2022-10-16T00:31:24;12.00;99.90
21762;DHT22;11203;50.870;20.682;2022-10-16T00:33:50;12.10;1.00
21762;DHT22;11203;50.870;20.682;2022-10-16T00:36:20;12.10;1.00
21762;DHT22;11203;50.870;20.682;2022-10-16T00:38:50;12.10;1.00
21762;DHT22;11203;50.870;20.682;2022-10-16T00:41:19;12.10;1.00
21762;DHT22;11203;50.870;20.682;2022-10-16T00:43:56;12.10;1.00
21762;DHT22;11203;50.870;20.682;2022-10-16T00:46:27;12.10;1.00
21762;DHT22;11203;50.870;20.682;2022-10-16T00:49:10;12.00;99.90
21762;DHT22;11203;50.870;20.682;2022-10-16T00:51:40;12.10;1.00
21762;DHT22;11203;50.870;20.682;2022-10-16T00:54:14;12.00;1.00
21762;DHT22;11203;50.870;20.682;2022-10-16T00:56:51;12.10;99.90
21762;DHT22;11203;50.870;20.682;2022-10-16T00:59:27;12.10;1.00
21762;DHT22;11203;50.870;20.682;2022-10-16T01:01:55;12.00;1.00
21762;DHT22;11203;50.870;20.682;2022-10-16T01:04:23;12.00;1.00
21762;DHT22;11203;50.870;20.682;2022-10-16T01:07:30;12.00;99.90
21762;DHT22;11203;50.870;20.682;2022-10-16T01:13:18;12.00;99.90
21762;DHT22;11203;50.870;20.682;2022-10-16T01:15:52;12.00;99.90
21762;DHT22;11203;50.870;20.682;2022-10-16T01:29:48;12.00;99.90
21762;DHT22;11203;50.870;20.682;2022-10-16T01:32:24;12.00;1.00
21762;DHT22;11203;50.870;20.682;2022-10-16T01:40:23;12.10;1.00
21762;DHT22;11203;50.870;20.682;2022-10-16T01:43:08;12.10;1.00
21762;DHT22;11203;50.870;20.682;2022-10-16T01:45:36;12.10;99.90
21762;DHT22;11203;50.870;20.682;2022-10-16T01:48:04;12.10;99.90
21762;DHT22;11203;50.870;20.682;2022-10-16T01:50:36;12.10;1.00
21762;DHT22;11203;50.870;20.682;2022-10-16T01:53:05;12.10;1.00
21762;DHT22;11203;50.870;20.682;2022-10-16T01:55:37;12.00;1.00
21762;DHT22;11203;50.870;20.682;2022-10-16T01:58:08;12.10;1.00
21762;DHT22;11203;50.870;20.682;2022-10-16T02:00:37;12.10;99.90
21762;DHT22;11203;50.870;20.682;2022-10-16T02:03:04;12.00;1.00
21762;DHT22;11203;50.870;20.682;2022-10-16T02:05:37;12.00;1.00
21762;DHT22;11203;50.870;20.682;2022-10-16T02:08:04;12.10;99.90
21762;DHT22;11203;50.870;20.682;2022-10-16T02:10:30;12.10;99.90
21762;DHT22;11203;50.870;20.682;2022-10-16T02:13:02;12.10;1.00
21762;DHT22;11203;50.870;20.682;2022-10-16T02:15:32;12.00;1.00
21762;DHT22;11203;50.870;20.682;2022-10-16T02:17:58;12.10;99.90
21762;DHT22;11203;50.870;20.682;2022-10-16T02:20:27;12.10;1.00
21762;DHT22;11203;50.870;20.682;2022-10-16T02:22:55;12.10;1.00
21762;DHT22;11203;50.870;20.682;2022-10-16T02:25:27;12.10;99.90
21762;DHT22;11203;50.870;20.682;2022-10-16T02:28:24;12.10;1.00
21762;DHT22;11203;50.870;20.682;2022-10-16T02:31:03;12.10;1.00
21762;DHT22;11203;50.870;20.682;2022-10-16T02:33:31;12.10;99.90
21762;DHT22;11203;50.870;20.682;2022-10-16T02:35:59;12.10;1.00
21762;DHT22;11203;50.870;20.682;2022-10-16T02:38:26;12.10;1.00
21762;DHT22;11203;50.870;20.682;2022-10-16T02:40:52;12.10;1.00
21762;DHT22;11203;50.870;20.682;2022-10-16T02:43:19;12.10;99.90
21762;DHT22;11203;50.870;20.682;2022-10-16T02:45:45;12.20;1.00
21762;DHT22;11203;50.870;20.682;2022-10-16T02:48:11;12.10;99.90
21762;DHT22;11203;50.870;20.682;2022-10-16T02:50:37;12.10;99.90
21762;DHT22;11203;50.870;20.682;2022-10-16T02:53:03;12.20;99.90
21762;DHT22;11203;50.870;20.682;2022-10-16T02:55:29;12.10;99.90
21762;DHT22;11203;50.870;20.682;2022-10-16T02:57:56;12.10;1.00
21762;DHT22;11203;50.870;20.682;2022-10-16T03:00:22;12.10;1.00
21762;DHT22;11203;50.870;20.682;2022-10-16T03:02:48;12.10;99.90
21762;DHT22;11203;50.870;20.682;2022-10-16T03:05:14;12.10;1.00
21762;DHT22;11203;50.870;20.682;2022-10-16T03:07:41;12.10;1.00
21762;DHT22;11203;50.870;20.682;2022-10-16T03:10:07;12.00;11.40
21762;DHT22;11203;50.870;20.682;2022-10-16T03:12:33;12.10;1.00
21762;DHT22;11203;50.870;20.682;2022-10-16T03:14:59;12.00;1.00
21762;DHT22;11203;50.870;20.682;2022-10-16T03:17:26;12.10;1.60
21762;DHT22;11203;50.870;20.682;2022-10-16T03:19:52;12.00;99.90
21762;DHT22;11203;50.870;20.682;2022-10-16T03:22:18;12.00;99.90
21762;DHT22;11203;50.870;20.682;2022-10-16T03:24:44;11.90;99.90
21762;DHT22;11203;50.870;20.682;2022-10-16T03:27:10;11.90;1.00
21762;DHT22;11203;50.870;20.682;2022-10-16T03:29:36;11.80;1.00
21762;DHT22;11203;50.870;20.682;2022-10-16T03:32:02;11.80;99.90
21762;DHT22;11203;50.870;20.682;2022-10-16T03:34:28;11.70;1.00
21762;DHT22;11203;50.870;20.682;2022-10-16T03:36:55;11.70;1.00
21762;DHT22;11203;50.870;20.682;2022-10-16T03:39:21;11.70;1.00
21762;DHT22;11203;50.870;20.682;2022-10-16T03:41:47;11.60;28.40
21762;DHT22;11203;50.870;20.682;2022-10-16T03:44:13;11.60;67.50
21762;DHT22;11203;50.870;20.682;2022-10-16T03:46:39;11.60;1.00
21762;DHT22;11203;50.870;20.682;2022-10-16T03:49:06;11.60;1.00
21762;DHT22;11203;50.870;20.682;2022-10-16T03:51:32;11.60;1.00
21762;DHT22;11203;50.870;20.682;2022-10-16T03:53:58;11.60;92.50
21762;DHT22;11203;50.870;20.682;2022-10-16T03:56:24;11.60;1.00
21762;DHT22;11203;50.870;20.682;2022-10-16T03:58:50;11.60;1.00
21762;DHT22;11203;50.870;20.682;2022-10-16T04:01:16;11.60;1.00
21762;DHT22;11203;50.870;20.682;2022-10-16T04:03:42;11.60;99.90
21762;DHT22;11203;50.870;20.682;2022-10-16T04:06:08;11.60;1.00
21762;DHT22;11203;50.870;20.682;2022-10-16T04:08:34;11.70;99.90
21762;DHT22;11203;50.870;20.682;2022-10-16T04:11:03;11.70;99.90
21762;DHT22;11203;50.870;20.682;2022-10-16T04:13:29;11.70;1.00
21762;DHT22;11203;50.870;20.682;2022-10-16T04:15:55;11.70;1.00
21762;DHT22;11203;50.870;20.682;2022-10-16T04:18:21;11.80;99.90
21762;DHT22;11203;50.870;20.682;2022-10-16T04:20:47;11.80;1.00
21762;DHT22;11203;50.870;20.682;2022-10-16T04:23:13;11.80;99.90
21762;DHT22;11203;50.870;20.682;2022-10-16T04:25:39;11.80;1.00
21762;DHT22;11203;50.870;20.682;2022-10-16T04:28:05;11.80;99.90
21762;DHT22;11203;50.870;20.682;2022-10-16T04:30:32;11.80;1.00
21762;DHT22;11203;50.870;20.682;2022-10-16T04:32:59;11.90;1.00
21762;DHT22;11203;50.870;20.682;2022-10-16T04:35:25;11.90;99.90
21762;DHT22;11203;50.870;20.682;2022-10-16T04:37:51;11.90;1.00
21762;DHT22;11203;50.870;20.682;2022-10-16T04:40:17;11.90;1.00
21762;DHT22;11203;50.870;20.682;2022-10-16T04:42:43;11.90;99.90
21762;DHT22;11203;50.870;20.682;2022-10-16T04:45:10;11.90;1.00
21762;DHT22;11203;50.870;20.682;2022-10-16T04:47:36;11.90;1.00
21762;DHT22;11203;50.870;20.682;2022-10-16T04:50:02;11.90;17.00
21762;DHT22;11203;50.870;20.682;2022-10-16T04:52:28;11.90;1.00
21762;DHT22;11203;50.870;20.682;2022-10-16T04:54:55;12.00;1.00
21762;DHT22;11203;50.870;20.682;2022-10-16T04:57:25;12.00;99.90
21762;DHT22;11203;50.870;20.682;2022-10-16T04:59:52;12.00;1.00
21762;DHT22;11203;50.870;20.682;2022-10-16T05:02:18;12.00;1.00
21762;DHT22;11203;50.870;20.682;2022-10-16T05:04:45;12.00;77.00
21762;DHT22;11203;50.870;20.682;2022-10-16T05:07:11;12.00;1.00
21762;DHT22;11203;50.870;20.682;2022-10-16T05:09:37;12.00;99.90
21762;DHT22;11203;50.870;20.682;2022-10-16T05:12:03;12.00;99.90
21762;DHT22;11203;50.870;20.682;2022-10-16T05:14:29;12.00;99.90
21762;DHT22;11203;50.870;20.682;2022-10-16T05:16:56;12.00;99.90
21762;DHT22;11203;50.870;20.682;2022-10-16T05:19:22;12.00;99.90
21762;DHT22;11203;50.870;20.682;2022-10-16T05:21:48;12.00;99.90
21762;DHT22;11203;50.870;20.682;2022-10-16T05:24:14;12.00;99.90
21762;DHT22;11203;50.870;20.682;2022-10-16T05:26:40;12.00;1.00
21762;DHT22;11203;50.870;20.682;2022-10-16T05:29:06;12.00;99.90
21762;DHT22;11203;50.870;20.682;2022-10-16T05:31:32;12.00;99.90
21762;DHT22;11203;50.870;20.682;2022-10-16T05:33:59;12.00;99.90
21762;DHT22;11203;50.870;20.682;2022-10-16T05:36:26;12.10;99.90
21762;DHT22;11203;50.870;20.682;2022-10-16T05:38:52;12.10;1.00
21762;DHT22;11203;50.870;20.682;2022-10-16T05:41:18;12.10;1.00
21762;DHT22;11203;50.870;20.682;2022-10-16T05:43:47;12.10;1.90
21762;DHT22;11203;50.870;20.682;2022-10-16T05:46:14;12.20;99.90
21762;DHT22;11203;50.870;20.682;2022-10-16T05:48:41;12.20;99.90
21762;DHT22;11203;50.870;20.682;2022-10-16T05:51:09;12.20;1.00
21762;DHT22;11203;50.870;20.682;2022-10-16T05:53:39;12.20;1.00
21762;DHT22;11203;50.870;20.682;2022-10-16T05:56:07;12.20;29.60
21762;DHT22;11203;50.870;20.682;2022-10-16T05:58:36;12.20;1.00
21762;DHT22;11203;50.870;20.682;2022-10-16T06:01:07;12.30;1.00
21762;DHT22;11203;50.870;20.682;2022-10-16T06:03:35;12.30;1.00
21762;DHT22;11203;50.870;20.682;2022-10-16T06:06:09;12.30;1.00
21762;DHT22;11203;50.870;20.682;2022-10-16T06:08:36;12.30;1.00
21762;DHT22;11203;50.870;20.682;2022-10-16T06:11:07;12.20;1.00
21762;DHT22;11203;50.870;20.682;2022-10-16T06:13:35;12.30;99.90
21762;DHT22;11203;50.870;20.682;2022-10-16T06:16:02;12.30;99.90
21762;DHT22;11203;50.870;20.682;2022-10-16T06:18:29;12.20;1.00
21762;DHT22;11203;50.870;20.682;2022-10-16T06:20:56;12.20;1.00
21762;DHT22;11203;50.870;20.682;2022-10-16T06:23:23;12.20;99.90
21762;DHT22;11203;50.870;20.682;2022-10-16T06:25:50;12.30;1.00
21762;DHT22;11203;50.870;20.682;2022-10-16T06:28:16;12.40;99.90
21762;DHT22;11203;50.870;20.682;2022-10-16T06:30:42;12.40;1.00
21762;DHT22;11203;50.870;20.682;2022-10-16T06:33:12;12.40;1.00
21762;DHT22;11203;50.870;20.682;2022-10-16T06:35:38;12.60;1.00
21762;DHT22;11203;50.870;20.682;2022-10-16T06:38:04;12.60;1.00
21762;DHT22;11203;50.870;20.682;2022-10-16T06:40:31;12.70;1.00
21762;DHT22;11203;50.870;20.682;2022-10-16T06:42:57;12.80;1.00
21762;DHT22;11203;50.870;20.682;2022-10-16T06:45:23;12.90;99.90
21762;DHT22;11203;50.870;20.682;2022-10-16T06:47:49;13.00;1.00
21762;DHT22;11203;50.870;20.682;2022-10-16T06:50:15;13.00;1.00
21762;DHT22;11203;50.870;20.682;2022-10-16T06:52:41;13.20;99.90
21762;DHT22;11203;50.870;20.682;2022-10-16T06:55:07;13.20;1.00
21762;DHT22;11203;50.870;20.682;2022-10-16T06:57:33;13.30;99.90
21762;DHT22;11203;50.870;20.682;2022-10-16T06:59:59;13.40;1.00
21762;DHT22;11203;50.870;20.682;2022-10-16T07:02:26;13.50;99.90
21762;DHT22;11203;50.870;20.682;2022-10-16T07:04:52;13.50;1.00
21762;DHT22;11203;50.870;20.682;2022-10-16T07:07:18;13.60;1.00
21762;DHT22;11203;50.870;20.682;2022-10-16T07:09:44;13.70;18.80
21762;DHT22;11203;50.870;20.682;2022-10-16T07:12:10;13.70;93.40
21762;DHT22;11203;50.870;20.682;2022-10-16T07:14:36;13.80;1.00
21762;DHT22;11203;50.870;20.682;2022-10-16T07:17:02;13.80;1.00
21762;DHT22;11203;50.870;20.682;2022-10-16T07:19:28;13.90;99.90
21762;DHT22;11203;50.870;20.682;2022-10-16T07:21:54;14.00;99.90
21762;DHT22;11203;50.870;20.682;2022-10-16T07:24:20;14.10;99.90
21762;DHT22;11203;50.870;20.682;2022-10-16T07:26:46;14.10;99.90
21762;DHT22;11203;50.870;20.682;2022-10-16T07:29:18;14.20;99.90
21762;DHT22;11203;50.870;20.682;2022-10-16T07:31:47;14.20;1.00
21762;DHT22;11203;50.870;20.682;2022-10-16T07:34:14;14.30;99.90
21762;DHT22;11203;50.870;20.682;2022-10-16T07:36:41;14.40;99.90
21762;DHT22;11203;50.870;20.682;2022-10-16T07:39:07;14.50;99.90
21762;DHT22;11203;50.870;20.682;2022-10-16T07:41:34;14.60;99.90
21762;DHT22;11203;50.870;20.682;2022-10-16T07:44:02;14.70;99.90
21762;DHT22;11203;50.870;20.682;2022-10-16T07:46:29;14.80;99.90
21762;DHT22;11203;50.870;20.682;2022-10-16T07:48:56;14.90;99.50
21762;DHT22;11203;50.870;20.682;2022-10-16T07:51:24;14.90;99.90
21762;DHT22;11203;50.870;20.682;2022-10-16T07:53:51;15.10;99.90
21762;DHT22;11203;50.870;20.682;2022-10-16T07:56:18;15.10;99.90
21762;DHT22;11203;50.870;20.682;2022-10-16T07:58:44;15.20;99.90
21762;DHT22;11203;50.870;20.682;2022-10-16T08:01:13;15.20;99.90
21762;DHT22;11203;50.870;20.682;2022-10-16T08:03:44;15.30;99.90
21762;DHT22;11203;50.870;20.682;2022-10-16T08:06:11;15.40;99.90
21762;DHT22;11203;50.870;20.682;2022-10-16T08:08:38;15.50;99.90
21762;DHT22;11203;50.870;20.682;2022-10-16T08:11:04;15.50;99.90
21762;DHT22;11203;50.870;20.682;2022-10-16T08:13:31;15.60;99.90
21762;DHT22;11203;50.870;20.682;2022-10-16T08:15:57;15.70;99.90
21762;DHT22;11203;50.870;20.682;2022-10-16T08:18:24;15.70;99.90
21762;DHT22;11203;50.870;20.682;2022-10-16T08:20:57;15.80;99.90
21762;DHT22;11203;50.870;20.682;2022-10-16T08:23:24;15.90;99.90
21762;DHT22;11203;50.870;20.682;2022-10-16T08:25:52;15.90;99.90
21762;DHT22;11203;50.870;20.682;2022-10-16T08:28:22;16.00;99.90
21762;DHT22;11203;50.870;20.682;2022-10-16T08:30:49;16.00;99.90
21762;DHT22;11203;50.870;20.682;2022-10-16T08:33:15;16.00;99.90
21762;DHT22;11203;50.870;20.682;2022-10-16T08:35:41;16.10;99.90
21762;DHT22;11203;50.870;20.682;2022-10-16T08:38:07;16.20;99.90
21762;DHT22;11203;50.870;20.682;2022-10-16T08:40:35;16.30;99.90
21762;DHT22;11203;50.870;20.682;2022-10-16T08:45:54;16.40;99.90
21762;DHT22;11203;50.870;20.682;2022-10-16T08:48:52;16.50;99.90
21762;DHT22;11203;50.870;20.682;2022-10-16T08:51:25;16.50;99.90
21762;DHT22;11203;50.870;20.682;2022-10-16T08:57:14;16.60;99.90
21762;DHT22;11203;50.870;20.682;2022-10-16T08:59:48;16.80;99.90
21762;DHT22;11203;50.870;20.682;2022-10-16T09:02:23;16.90;99.90
21762;DHT22;11203;50.870;20.682;2022-10-16T09:17:06;17.30;99.90
21762;DHT22;11203;50.870;20.682;2022-10-16T09:20:14;17.40;99.90
21762;DHT22;11203;50.870;20.682;2022-10-16T09:22:56;17.60;99.90
21762;DHT22;11203;50.870;20.682;2022-10-16T09:25:29;17.70;99.90
21762;DHT22;11203;50.870;20.682;2022-10-16T09:27:56;17.70;99.90
21762;DHT22;11203;50.870;20.682;2022-10-16T09:30:22;17.70;99.90
21762;DHT22;11203;50.870;20.682;2022-10-16T09:32:54;17.80;99.90
21762;DHT22;11203;50.870;20.682;2022-10-16T09:35:24;17.80;99.90
21762;DHT22;11203;50.870;20.682;2022-10-16T09:37:59;17.90;99.90
21762;DHT22;11203;50.870;20.682;2022-10-16T09:40:33;17.70;99.90
21762;DHT22;11203;50.870;20.682;2022-10-16T09:43:20;17.90;99.90
21762;DHT22;11203;50.870;20.682;2022-10-16T09:48:55;18.10;99.90
21762;DHT22;11203;50.870;20.682;2022-10-16T09:51:34;18.10;99.90
21762;DHT22;11203;50.870;20.682;2022-10-16T09:56:36;18.00;99.90
21762;DHT22;11203;50.870;20.682;2022-10-16T09:59:15;17.90;99.90
21762;DHT22;11203;50.870;20.682;2022-10-16T10:01:51;17.90;99.90
21762;DHT22;11203;50.870;20.682;2022-10-16T10:04:23;17.90;99.90
21762;DHT22;11203;50.870;20.682;2022-10-16T10:06:52;18.00;99.90
21762;DHT22;11203;50.870;20.682;2022-10-16T10:09:35;18.00;99.90
21762;DHT22;11203;50.870;20.682;2022-10-16T10:12:05;18.20;99.90
21762;DHT22;11203;50.870;20.682;2022-10-16T10:14:38;18.20;99.90
21762;DHT22;11203;50.870;20.682;2022-10-16T10:19:55;18.30;99.90
21762;DHT22;11203;50.870;20.682;2022-10-16T10:22:43;18.40;99.90
21762;DHT22;11203;50.870;20.682;2022-10-16T10:46:57;19.00;99.90
21762;DHT22;11203;50.870;20.682;2022-10-16T11:01:08;19.50;99.90
21762;DHT22;11203;50.870;20.682;2022-10-16T11:06:50;19.30;99.90
21762;DHT22;11203;50.870;20.682;2022-10-16T11:09:53;19.30;99.90
21762;DHT22;11203;50.870;20.682;2022-10-16T11:12:27;19.10;99.90
21762;DHT22;11203;50.870;20.682;2022-10-16T11:17:59;19.10;99.90
21762;DHT22;11203;50.870;20.682;2022-10-16T11:20:40;19.00;99.90
21762;DHT22;11203;50.870;20.682;2022-10-16T11:23:28;19.10;99.90
21762;DHT22;11203;50.870;20.682;2022-10-16T11:26:05;19.10;99.90
21762;DHT22;11203;50.870;20.682;2022-10-16T11:28:58;19.30;99.90
21762;DHT22;11203;50.870;20.682;2022-10-16T11:34:25;19.30;99.90
21762;DHT22;11203;50.870;20.682;2022-10-16T11:37:14;19.40;99.90
21762;DHT22;11203;50.870;20.682;2022-10-16T11:40:09;19.40;99.90
21762;DHT22;11203;50.870;20.682;2022-10-16T11:42:50;19.50;99.90
21762;DHT22;11203;50.870;20.682;2022-10-16T11:45:30;19.60;99.90
21762;DHT22;11203;50.870;20.682;2022-10-16T11:48:12;19.70;99.90
21762;DHT22;11203;50.870;20.682;2022-10-16T11:50:57;19.70;99.90
21762;DHT22;11203;50.870;20.682;2022-10-16T11:53:39;19.60;99.90
21762;DHT22;11203;50.870;20.682;2022-10-16T11:56:08;19.50;99.90
21762;DHT22;11203;50.870;20.682;2022-10-16T11:58:45;19.50;99.90
21762;DHT22;11203;50.870;20.682;2022-10-16T12:05:14;19.40;99.90
21762;DHT22;11203;50.870;20.682;2022-10-16T12:10:30;19.50;99.90
21762;DHT22;11203;50.870;20.682;2022-10-16T12:12:57;19.60;99.90
21762;DHT22;11203;50.870;20.682;2022-10-16T12:15:29;19.60;99.90
21762;DHT22;11203;50.870;20.682;2022-10-16T12:17:57;19.50;99.90
21762;DHT22;11203;50.870;20.682;2022-10-16T12:20:30;19.40;99.90
21762;DHT22;11203;50.870;20.682;2022-10-16T12:23:02;19.30;99.90
21762;DHT22;11203;50.870;20.682;2022-10-16T12:25:35;19.40;99.90
21762;DHT22;11203;50.870;20.682;2022-10-16T12:28:05;19.50;99.90
21762;DHT22;11203;50.870;20.682;2022-10-16T12:30:35;19.40;99.90
21762;DHT22;11203;50.870;20.682;2022-10-16T12:33:21;19.50;99.90
21762;DHT22;11203;50.870;20.682;2022-10-16T12:35:50;19.60;99.90
21762;DHT22;11203;50.870;20.682;2022-10-16T12:38:21;19.60;99.90
21762;DHT22;11203;50.870;20.682;2022-10-16T12:41:05;19.70;99.90
21762;DHT22;11203;50.870;20.682;2022-10-16T12:48:37;19.60;99.90
21762;DHT22;11203;50.870;20.682;2022-10-16T12:53:45;19.50;99.90
21762;DHT22;11203;50.870;20.682;2022-10-16T12:57:17;19.50;99.90
21762;DHT22;11203;50.870;20.682;2022-10-16T13:14:21;19.60;99.90
21762;DHT22;11203;50.870;20.682;2022-10-16T13:22:21;19.70;99.90
21762;DHT22;11203;50.870;20.682;2022-10-16T13:27:55;19.80;99.90
21762;DHT22;11203;50.870;20.682;2022-10-16T13:30:30;19.80;99.90
21762;DHT22;11203;50.870;20.682;2022-10-16T13:33:13;19.80;99.90
21762;DHT22;11203;50.870;20.682;2022-10-16T13:35:49;19.70;99.90
21762;DHT22;11203;50.870;20.682;2022-10-16T13:38:20;19.90;99.90
21762;DHT22;11203;50.870;20.682;2022-10-16T13:40:58;19.80;99.90
21762;DHT22;11203;50.870;20.682;2022-10-16T13:43:35;19.70;99.90
21762;DHT22;11203;50.870;20.682;2022-10-16T13:48:33;19.60;99.90
21762;DHT22;11203;50.870;20.682;2022-10-16T13:53:39;19.40;99.90
21762;DHT22;11203;50.870;20.682;2022-10-16T13:56:10;19.40;99.90
21762;DHT22;11203;50.870;20.682;2022-10-16T13:58:38;19.40;99.90
21762;DHT22;11203;50.870;20.682;2022-10-16T14:01:13;19.30;99.90
21762;DHT22;11203;50.870;20.682;2022-10-16T14:03:52;19.30;99.90
21762;DHT22;11203;50.870;20.682;2022-10-16T14:06:20;19.30;99.90
21762;DHT22;11203;50.870;20.682;2022-10-16T14:09:05;19.20;99.90
21762;DHT22;11203;50.870;20.682;2022-10-16T14:11:50;19.20;99.90
21762;DHT22;11203;50.870;20.682;2022-10-16T14:14:19;19.20;99.90
21762;DHT22;11203;50.870;20.682;2022-10-16T14:16:45;19.20;99.90
21762;DHT22;11203;50.870;20.682;2022-10-16T14:19:20;19.20;99.90
21762;DHT22;11203;50.870;20.682;2022-10-16T14:21:50;19.10;99.90
21762;DHT22;11203;50.870;20.682;2022-10-16T14:24:31;19.20;99.90
21762;DHT22;11203;50.870;20.682;2022-10-16T14:26:59;19.30;99.90
21762;DHT22;11203;50.870;20.682;2022-10-16T14:29:28;19.20;99.90
21762;DHT22;11203;50.870;20.682;2022-10-16T14:31:59;19.20;99.90
21762;DHT22;11203;50.870;20.682;2022-10-16T14:34:31;19.20;99.90
21762;DHT22;11203;50.870;20.682;2022-10-16T14:37:26;19.10;99.90
21762;DHT22;11203;50.870;20.682;2022-10-16T14:39:54;19.10;99.90
21762;DHT22;11203;50.870;20.682;2022-10-16T14:42:23;19.00;99.90
21762;DHT22;11203;50.870;20.682;2022-10-16T14:44:53;19.00;99.90
21762;DHT22;11203;50.870;20.682;2022-10-16T14:47:22;19.00;99.90
21762;DHT22;11203;50.870;20.682;2022-10-16T14:49:53;18.90;99.90
21762;DHT22;11203;50.870;20.682;2022-10-16T14:52:24;18.90;99.90
21762;DHT22;11203;50.870;20.682;2022-10-16T14:54:51;18.90;99.90
21762;DHT22;11203;50.870;20.682;2022-10-16T14:57:24;18.90;99.90
21762;DHT22;11203;50.870;20.682;2022-10-16T14:59:53;18.90;99.90
21762;DHT22;11203;50.870;20.682;2022-10-16T15:02:32;18.70;99.90
21762;DHT22;11203;50.870;20.682;2022-10-16T15:05:28;18.70;99.90
21762;DHT22;11203;50.870;20.682;2022-10-16T15:07:54;18.70;99.90
21762;DHT22;11203;50.870;20.682;2022-10-16T15:10:22;18.60;99.90
21762;DHT22;11203;50.870;20.682;2022-10-16T15:12:50;18.50;99.90
21762;DHT22;11203;50.870;20.682;2022-10-16T15:17:58;18.30;99.90
21762;DHT22;11203;50.870;20.682;2022-10-16T15:20:32;18.20;99.90
21762;DHT22;11203;50.870;20.682;2022-10-16T15:23:02;18.20;99.90
21762;DHT22;11203;50.870;20.682;2022-10-16T15:28:10;18.00;99.90
21762;DHT22;11203;50.870;20.682;2022-10-16T15:30:37;18.00;99.90
21762;DHT22;11203;50.870;20.682;2022-10-16T15:33:05;18.00;99.90
21762;DHT22;11203;50.870;20.682;2022-10-16T15:35:31;17.80;99.90
21762;DHT22;11203;50.870;20.682;2022-10-16T15:37:57;17.90;99.90
21762;DHT22;11203;50.870;20.682;2022-10-16T15:40:24;17.80;99.90
21762;DHT22;11203;50.870;20.682;2022-10-16T15:42:50;17.70;99.90
21762;DHT22;11203;50.870;20.682;2022-10-16T15:45:16;17.60;99.90
21762;DHT22;11203;50.870;20.682;2022-10-16T15:47:43;17.50;99.90
21762;DHT22;11203;50.870;20.682;2022-10-16T15:50:11;17.40;99.90
21762;DHT22;11203;50.870;20.682;2022-10-16T15:52:38;17.30;99.90
21762;DHT22;11203;50.870;20.682;2022-10-16T15:55:09;17.30;99.90
21762;DHT22;11203;50.870;20.682;2022-10-16T15:57:37;17.30;99.90
21762;DHT22;11203;50.870;20.682;2022-10-16T16:00:12;17.20;99.90
21762;DHT22;11203;50.870;20.682;2022-10-16T16:02:40;17.20;99.90
21762;DHT22;11203;50.870;20.682;2022-10-16T16:05:08;17.10;99.90
21762;DHT22;11203;50.870;20.682;2022-10-16T16:07:36;17.10;99.90
21762;DHT22;11203;50.870;20.682;2022-10-16T16:10:04;17.00;99.90
21762;DHT22;11203;50.870;20.682;2022-10-16T16:12:33;17.00;99.90
21762;DHT22;11203;50.870;20.682;2022-10-16T16:14:59;16.80;99.90
21762;DHT22;11203;50.870;20.682;2022-10-16T16:17:25;16.80;99.90
21762;DHT22;11203;50.870;20.682;2022-10-16T16:19:51;16.70;99.90
21762;DHT22;11203;50.870;20.682;2022-10-16T16:22:17;16.70;99.90
21762;DHT22;11203;50.870;20.682;2022-10-16T16:24:44;16.70;99.90
21762;DHT22;11203;50.870;20.682;2022-10-16T16:27:10;16.60;99.90
21762;DHT22;11203;50.870;20.682;2022-10-16T16:29:36;16.60;99.90
21762;DHT22;11203;50.870;20.682;2022-10-16T16:32:02;16.50;99.90
21762;DHT22;11203;50.870;20.682;2022-10-16T16:34:29;16.50;99.90
21762;DHT22;11203;50.870;20.682;2022-10-16T16:36:56;16.50;99.90
21762;DHT22;11203;50.870;20.682;2022-10-16T16:39:23;16.40;99.90
21762;DHT22;11203;50.870;20.682;2022-10-16T16:41:49;16.30;99.90
21762;DHT22;11203;50.870;20.682;2022-10-16T16:44:16;16.20;99.90
21762;DHT22;11203;50.870;20.682;2022-10-16T16:46:44;16.20;99.90
21762;DHT22;11203;50.870;20.682;2022-10-16T16:49:12;16.30;99.90
21762;DHT22;11203;50.870;20.682;2022-10-16T16:51:38;16.30;99.90
21762;DHT22;11203;50.870;20.682;2022-10-16T16:54:06;16.30;99.90
21762;DHT22;11203;50.870;20.682;2022-10-16T16:56:33;16.30;99.90
21762;DHT22;11203;50.870;20.682;2022-10-16T16:59:00;16.20;99.90
21762;DHT22;11203;50.870;20.682;2022-10-16T17:01:27;16.20;99.90
21762;DHT22;11203;50.870;20.682;2022-10-16T17:03:56;16.20;99.90
21762;DHT22;11203;50.870;20.682;2022-10-16T17:06:26;16.20;99.90
21762;DHT22;11203;50.870;20.682;2022-10-16T17:08:53;16.10;99.90
21762;DHT22;11203;50.870;20.682;2022-10-16T17:11:22;16.10;99.90
21762;DHT22;11203;50.870;20.682;2022-10-16T17:13:54;16.00;99.90
21762;DHT22;11203;50.870;20.682;2022-10-16T17:16:22;16.00;99.90
21762;DHT22;11203;50.870;20.682;2022-10-16T17:18:49;16.00;99.90
21762;DHT22;11203;50.870;20.682;2022-10-16T17:21:15;15.90;99.90
21762;DHT22;11203;50.870;20.682;2022-10-16T17:23:42;15.90;99.90
21762;DHT22;11203;50.870;20.682;2022-10-16T17:26:12;15.90;99.90
21762;DHT22;11203;50.870;20.682;2022-10-16T17:28:41;15.80;99.90
21762;DHT22;11203;50.870;20.682;2022-10-16T17:31:12;15.70;99.90
21762;DHT22;11203;50.870;20.682;2022-10-16T17:33:40;15.70;99.90
21762;DHT22;11203;50.870;20.682;2022-10-16T17:36:07;15.70;99.90
21762;DHT22;11203;50.870;20.682;2022-10-16T17:38:34;15.60;99.90
21762;DHT22;11203;50.870;20.682;2022-10-16T17:41:30;15.60;99.90
21762;DHT22;11203;50.870;20.682;2022-10-16T17:43:57;15.50;99.90
21762;DHT22;11203;50.870;20.682;2022-10-16T17:46:23;15.50;99.90
21762;DHT22;11203;50.870;20.682;2022-10-16T17:48:52;15.40;99.90
21762;DHT22;11203;50.870;20.682;2022-10-16T17:51:24;15.30;99.90
21762;DHT22;11203;50.870;20.682;2022-10-16T17:53:54;15.30;99.90
21762;DHT22;11203;50.870;20.682;2022-10-16T17:56:22;15.20;99.90